Aérodrome :
LOGIN :

S'inscrire | Disclaimer

   EN    FR    IT 

 










Légende :    VFR   VFR Marginal   IFR   IFR Intensif   IFR Très Intensif
Visi : 
Plafond : 
>= 8 km
>= 3000ft
5 à 8 km
1000 à 3000 ft
1500m à 5 km
500 à 1000 ft
800 à 1500m
200 à 500 ft
< 800m
< 200 ft
Symboles :   Orages  Brouillard  Fortes neiges  Fortes précipitations  Vent > 20 kt
SIGMETs :   Divers  Orages  Givrage  Turbulence  Onde Orograph.  Cendres Volcan.







- Altitude de l'aérodrome : 616 ft
- Code IATA : PUF
- Voir les cartes d'approche


LFBP - Pau

DERNIER METAR :
  • 202230Z AUTO 27003KT 7000 BKN021/// BKN032/// BKN056/// ///CB 17/16 Q1017 TEMPO 24015G30KT 2500 TSRA BKN005 BKN020CB

METARs EXPIRÉS :
  • 202200Z AUTO 27004KT 250V310 6000 FEW005 BKN026 BKN038 17/17 Q1017 TEMPO 24015G30KT 2500 TSRA BKN005 BKN020CB
  • 202130Z AUTO 30002KT 6000 -RADZ FEW004 OVC027 17/16 Q1017 TEMPO 24015G30KT 2500 TSRA BKN005 BKN020CB
  • 202100Z AUTO VRB02KT 6000 FEW004 BKN024 BKN029 17/16 Q1017 TEMPO 24015G30KT 2500 TSRA BKN005 BKN020CB
  • 202030Z AUTO VRB02KT 5000 -RA BR FEW030/// SCT037/// BKN044/// ///TCU 17/17 Q1017 TEMPO 24015G30KT 2500 TSRA BKN005 BKN020CB
  • 202000Z AUTO 25005KT 6000 -RA BKN028 OVC041 17/17 Q1017 TEMPO 24015G30KT 2500 TSRA BKN005 BKN020CB

TAF TAF LFBP
Valide du 20 à 18h jusqu'au 21 à 18h UTC


201700Z 2018/2118 26006KT 9999 BKN020
PROB40
TEMPO 2018/2118 4000 SHRA BKN010 BKN030TCU
PROB30
TEMPO 2019/2112 2500 TSRA BKN005 BKN020CB
PROB30
TEMPO 2019/2024 24015G30KT
Pas de NOTAMs connus pour ce terrain.



MET'MAP, la Météo Aéronautique d'un coup d'oeil ! - Copyright ORBIFLY Décembre 2007 - Disclaimer

ORBIFLY MET'MAP TEAM :

Programmation & Développement : Alexandra Zaïnal
Conception & Développement : Baudouin d'Aumeries
Co-Programmation & Développement : Marc-Olivier Méhu
Soutien technique & logistique : Manuel Goepfert

Contact : metmap@orbifly.com




SOURCES & CREDITS :

   NOAA